sensor_id;sensor_type;location;lat;lon;timestamp;P1;durP1;ratioP1;P2;durP2;ratioP2
31424;SDS011;18054;51.572;7.372;2023-07-31T00:02:34;3.45;;;1.70;;
31424;SDS011;18054;51.572;7.372;2023-07-31T00:05:02;5.90;;;2.67;;
31424;SDS011;18054;51.572;7.372;2023-07-31T00:07:30;4.57;;;2.55;;
31424;SDS011;18054;51.572;7.372;2023-07-31T00:09:57;5.13;;;3.08;;
31424;SDS011;18054;51.572;7.372;2023-07-31T00:12:25;5.03;;;2.83;;
31424;SDS011;18054;51.572;7.372;2023-07-31T00:14:53;4.68;;;2.70;;
31424;SDS011;18054;51.572;7.372;2023-07-31T00:17:20;4.63;;;2.15;;
31424;SDS011;18054;51.572;7.372;2023-07-31T00:19:49;5.55;;;2.20;;
31424;SDS011;18054;51.572;7.372;2023-07-31T00:22:17;3.92;;;2.00;;
31424;SDS011;18054;51.572;7.372;2023-07-31T00:24:44;5.60;;;2.30;;
31424;SDS011;18054;51.572;7.372;2023-07-31T00:27:12;4.18;;;1.70;;
31424;SDS011;18054;51.572;7.372;2023-07-31T00:29:39;4.43;;;1.80;;
31424;SDS011;18054;51.572;7.372;2023-07-31T00:32:07;5.47;;;1.85;;
31424;SDS011;18054;51.572;7.372;2023-07-31T00:34:36;3.00;;;1.63;;
31424;SDS011;18054;51.572;7.372;2023-07-31T00:37:05;4.30;;;1.85;;
31424;SDS011;18054;51.572;7.372;2023-07-31T00:39:34;5.40;;;2.13;;
31424;SDS011;18054;51.572;7.372;2023-07-31T00:42:02;4.55;;;1.90;;
31424;SDS011;18054;51.572;7.372;2023-07-31T00:44:31;9.90;;;2.75;;
31424;SDS011;18054;51.572;7.372;2023-07-31T00:46:59;12.73;;;3.83;;
31424;SDS011;18054;51.572;7.372;2023-07-31T00:49:27;10.27;;;4.03;;
31424;SDS011;18054;51.572;7.372;2023-07-31T00:51:54;15.23;;;4.50;;
31424;SDS011;18054;51.572;7.372;2023-07-31T00:54:25;12.43;;;4.22;;
31424;SDS011;18054;51.572;7.372;2023-07-31T00:56:53;10.60;;;4.45;;
31424;SDS011;18054;51.572;7.372;2023-07-31T00:59:21;10.32;;;4.90;;
31424;SDS011;18054;51.572;7.372;2023-07-31T01:01:49;13.02;;;4.93;;
31424;SDS011;18054;51.572;7.372;2023-07-31T01:04:17;11.43;;;4.43;;
31424;SDS011;18054;51.572;7.372;2023-07-31T01:06:45;20.63;;;5.82;;
31424;SDS011;18054;51.572;7.372;2023-07-31T01:09:17;16.25;;;6.03;;
31424;SDS011;18054;51.572;7.372;2023-07-31T01:11:50;15.13;;;5.90;;
31424;SDS011;18054;51.572;7.372;2023-07-31T01:14:19;21.63;;;7.28;;
31424;SDS011;18054;51.572;7.372;2023-07-31T01:16:46;28.23;;;6.95;;
31424;SDS011;18054;51.572;7.372;2023-07-31T01:19:14;20.90;;;7.53;;
31424;SDS011;18054;51.572;7.372;2023-07-31T01:21:58;13.57;;;6.30;;
31424;SDS011;18054;51.572;7.372;2023-07-31T01:24:29;14.05;;;6.28;;
31424;SDS011;18054;51.572;7.372;2023-07-31T01:27:01;16.08;;;6.10;;
31424;SDS011;18054;51.572;7.372;2023-07-31T01:29:32;21.38;;;6.43;;
31424;SDS011;18054;51.572;7.372;2023-07-31T01:32:01;16.45;;;5.70;;
31424;SDS011;18054;51.572;7.372;2023-07-31T01:34:29;19.88;;;6.38;;
31424;SDS011;18054;51.572;7.372;2023-07-31T01:36:57;19.10;;;5.60;;
31424;SDS011;18054;51.572;7.372;2023-07-31T01:39:25;15.30;;;5.82;;
31424;SDS011;18054;51.572;7.372;2023-07-31T01:41:52;25.20;;;5.88;;
31424;SDS011;18054;51.572;7.372;2023-07-31T01:44:21;19.33;;;4.97;;
31424;SDS011;18054;51.572;7.372;2023-07-31T01:46:49;14.18;;;5.32;;
31424;SDS011;18054;51.572;7.372;2023-07-31T01:49:17;23.60;;;6.00;;
31424;SDS011;18054;51.572;7.372;2023-07-31T01:51:45;20.65;;;5.88;;
31424;SDS011;18054;51.572;7.372;2023-07-31T01:54:12;12.90;;;4.75;;
31424;SDS011;18054;51.572;7.372;2023-07-31T01:56:40;16.05;;;4.90;;
31424;SDS011;18054;51.572;7.372;2023-07-31T01:59:08;11.32;;;4.30;;
31424;SDS011;18054;51.572;7.372;2023-07-31T02:01:37;15.70;;;4.65;;
31424;SDS011;18054;51.572;7.372;2023-07-31T02:04:04;11.52;;;4.15;;
31424;SDS011;18054;51.572;7.372;2023-07-31T02:06:32;13.70;;;4.85;;
31424;SDS011;18054;51.572;7.372;2023-07-31T02:09:00;10.60;;;4.35;;
31424;SDS011;18054;51.572;7.372;2023-07-31T02:11:30;13.88;;;4.43;;
31424;SDS011;18054;51.572;7.372;2023-07-31T02:13:58;10.75;;;4.20;;
31424;SDS011;18054;51.572;7.372;2023-07-31T02:16:25;12.20;;;4.10;;
31424;SDS011;18054;51.572;7.372;2023-07-31T02:18:54;12.80;;;4.07;;
31424;SDS011;18054;51.572;7.372;2023-07-31T02:21:22;11.70;;;4.03;;
31424;SDS011;18054;51.572;7.372;2023-07-31T02:23:49;15.63;;;4.85;;
31424;SDS011;18054;51.572;7.372;2023-07-31T02:26:18;13.65;;;3.95;;
31424;SDS011;18054;51.572;7.372;2023-07-31T02:28:46;9.10;;;4.03;;
31424;SDS011;18054;51.572;7.372;2023-07-31T02:31:14;15.48;;;4.85;;
31424;SDS011;18054;51.572;7.372;2023-07-31T02:33:41;14.40;;;4.03;;
31424;SDS011;18054;51.572;7.372;2023-07-31T02:36:10;11.85;;;4.63;;
31424;SDS011;18054;51.572;7.372;2023-07-31T02:38:38;11.18;;;4.28;;
31424;SDS011;18054;51.572;7.372;2023-07-31T02:41:05;14.82;;;4.15;;
31424;SDS011;18054;51.572;7.372;2023-07-31T02:43:33;9.40;;;3.88;;
31424;SDS011;18054;51.572;7.372;2023-07-31T02:46:00;14.00;;;3.20;;
31424;SDS011;18054;51.572;7.372;2023-07-31T02:48:28;19.85;;;4.43;;
31424;SDS011;18054;51.572;7.372;2023-07-31T02:50:56;15.95;;;4.32;;
31424;SDS011;18054;51.572;7.372;2023-07-31T02:53:24;10.35;;;3.72;;
31424;SDS011;18054;51.572;7.372;2023-07-31T02:55:52;12.57;;;4.40;;
31424;SDS011;18054;51.572;7.372;2023-07-31T02:58:20;11.05;;;3.95;;
31424;SDS011;18054;51.572;7.372;2023-07-31T03:00:47;12.77;;;3.47;;
31424;SDS011;18054;51.572;7.372;2023-07-31T03:03:15;12.15;;;3.40;;
31424;SDS011;18054;51.572;7.372;2023-07-31T03:10:40;11.55;;;3.60;;
31424;SDS011;18054;51.572;7.372;2023-07-31T03:13:07;12.18;;;3.75;;
31424;SDS011;18054;51.572;7.372;2023-07-31T03:15:35;14.82;;;3.72;;
31424;SDS011;18054;51.572;7.372;2023-07-31T03:18:03;10.13;;;3.63;;
31424;SDS011;18054;51.572;7.372;2023-07-31T03:22:58;11.60;;;4.18;;
31424;SDS011;18054;51.572;7.372;2023-07-31T03:25:26;16.83;;;4.00;;
31424;SDS011;18054;51.572;7.372;2023-07-31T03:27:55;19.17;;;4.60;;
31424;SDS011;18054;51.572;7.372;2023-07-31T03:30:22;11.88;;;4.13;;
31424;SDS011;18054;51.572;7.372;2023-07-31T03:32:51;10.32;;;3.17;;
31424;SDS011;18054;51.572;7.372;2023-07-31T03:35:18;15.60;;;4.20;;
31424;SDS011;18054;51.572;7.372;2023-07-31T03:37:46;13.25;;;3.78;;
31424;SDS011;18054;51.572;7.372;2023-07-31T03:40:14;14.75;;;3.90;;
31424;SDS011;18054;51.572;7.372;2023-07-31T03:42:42;14.13;;;4.47;;
31424;SDS011;18054;51.572;7.372;2023-07-31T03:45:11;12.95;;;4.03;;
31424;SDS011;18054;51.572;7.372;2023-07-31T03:47:39;10.90;;;3.78;;
31424;SDS011;18054;51.572;7.372;2023-07-31T03:50:07;14.38;;;3.67;;
31424;SDS011;18054;51.572;7.372;2023-07-31T03:52:35;12.88;;;4.35;;
31424;SDS011;18054;51.572;7.372;2023-07-31T03:55:03;8.88;;;3.25;;
31424;SDS011;18054;51.572;7.372;2023-07-31T03:57:31;12.18;;;4.25;;
31424;SDS011;18054;51.572;7.372;2023-07-31T03:59:59;13.48;;;4.65;;
31424;SDS011;18054;51.572;7.372;2023-07-31T04:02:38;9.82;;;3.53;;
31424;SDS011;18054;51.572;7.372;2023-07-31T04:05:06;14.40;;;4.13;;
31424;SDS011;18054;51.572;7.372;2023-07-31T04:07:34;8.07;;;3.22;;
31424;SDS011;18054;51.572;7.372;2023-07-31T04:10:03;13.30;;;4.13;;
31424;SDS011;18054;51.572;7.372;2023-07-31T04:12:31;19.77;;;4.53;;
31424;SDS011;18054;51.572;7.372;2023-07-31T04:14:58;9.38;;;3.30;;
31424;SDS011;18054;51.572;7.372;2023-07-31T04:17:26;18.27;;;3.90;;
31424;SDS011;18054;51.572;7.372;2023-07-31T04:22:23;14.63;;;4.10;;
31424;SDS011;18054;51.572;7.372;2023-07-31T04:24:50;7.80;;;3.35;;
31424;SDS011;18054;51.572;7.372;2023-07-31T04:27:18;12.50;;;3.85;;
31424;SDS011;18054;51.572;7.372;2023-07-31T04:29:46;11.77;;;3.67;;
31424;SDS011;18054;51.572;7.372;2023-07-31T04:32:14;11.40;;;3.50;;
31424;SDS011;18054;51.572;7.372;2023-07-31T04:34:43;8.82;;;3.78;;
31424;SDS011;18054;51.572;7.372;2023-07-31T04:39:39;13.75;;;3.28;;
31424;SDS011;18054;51.572;7.372;2023-07-31T04:42:07;12.65;;;3.90;;
31424;SDS011;18054;51.572;7.372;2023-07-31T04:44:35;13.82;;;4.20;;
31424;SDS011;18054;51.572;7.372;2023-07-31T04:47:03;8.20;;;3.53;;
31424;SDS011;18054;51.572;7.372;2023-07-31T04:51:58;13.02;;;3.95;;
31424;SDS011;18054;51.572;7.372;2023-07-31T04:54:26;12.55;;;3.53;;
31424;SDS011;18054;51.572;7.372;2023-07-31T04:56:55;17.63;;;3.92;;
31424;SDS011;18054;51.572;7.372;2023-07-31T04:59:22;11.07;;;2.95;;
31424;SDS011;18054;51.572;7.372;2023-07-31T05:01:50;15.27;;;4.18;;
31424;SDS011;18054;51.572;7.372;2023-07-31T05:04:18;9.55;;;3.35;;
31424;SDS011;18054;51.572;7.372;2023-07-31T05:06:45;12.88;;;3.53;;
31424;SDS011;18054;51.572;7.372;2023-07-31T05:14:10;12.18;;;3.72;;
31424;SDS011;18054;51.572;7.372;2023-07-31T05:16:38;8.80;;;3.17;;
31424;SDS011;18054;51.572;7.372;2023-07-31T05:19:06;7.47;;;3.13;;
31424;SDS011;18054;51.572;7.372;2023-07-31T05:21:34;9.15;;;2.97;;
31424;SDS011;18054;51.572;7.372;2023-07-31T05:24:02;13.27;;;3.78;;
31424;SDS011;18054;51.572;7.372;2023-07-31T05:28:57;19.90;;;4.15;;
31424;SDS011;18054;51.572;7.372;2023-07-31T05:31:26;17.50;;;3.60;;
31424;SDS011;18054;51.572;7.372;2023-07-31T05:33:54;8.43;;;3.53;;
31424;SDS011;18054;51.572;7.372;2023-07-31T05:36:22;18.67;;;3.63;;
31424;SDS011;18054;51.572;7.372;2023-07-31T05:38:49;10.05;;;3.35;;
31424;SDS011;18054;51.572;7.372;2023-07-31T05:41:17;12.77;;;3.80;;
31424;SDS011;18054;51.572;7.372;2023-07-31T05:43:45;11.05;;;3.63;;
31424;SDS011;18054;51.572;7.372;2023-07-31T05:46:13;12.07;;;3.53;;
31424;SDS011;18054;51.572;7.372;2023-07-31T05:53:37;13.98;;;3.80;;
31424;SDS011;18054;51.572;7.372;2023-07-31T05:56:07;14.55;;;4.28;;
31424;SDS011;18054;51.572;7.372;2023-07-31T05:58:35;11.43;;;3.20;;
31424;SDS011;18054;51.572;7.372;2023-07-31T06:01:02;8.00;;;3.60;;
31424;SDS011;18054;51.572;7.372;2023-07-31T06:03:30;9.85;;;3.55;;
31424;SDS011;18054;51.572;7.372;2023-07-31T06:08:25;15.27;;;4.40;;
31424;SDS011;18054;51.572;7.372;2023-07-31T06:10:54;17.60;;;4.10;;
31424;SDS011;18054;51.572;7.372;2023-07-31T06:13:22;9.50;;;3.97;;
31424;SDS011;18054;51.572;7.372;2023-07-31T06:15:50;9.50;;;3.60;;
31424;SDS011;18054;51.572;7.372;2023-07-31T06:18:18;10.65;;;4.43;;
31424;SDS011;18054;51.572;7.372;2023-07-31T06:20:46;14.85;;;4.20;;
31424;SDS011;18054;51.572;7.372;2023-07-31T06:23:14;9.20;;;3.58;;
31424;SDS011;18054;51.572;7.372;2023-07-31T06:25:41;13.32;;;3.65;;
31424;SDS011;18054;51.572;7.372;2023-07-31T06:28:10;12.98;;;5.00;;
31424;SDS011;18054;51.572;7.372;2023-07-31T06:30:38;16.63;;;4.40;;
31424;SDS011;18054;51.572;7.372;2023-07-31T06:33:06;9.35;;;3.72;;
31424;SDS011;18054;51.572;7.372;2023-07-31T06:38:01;14.82;;;3.78;;
31424;SDS011;18054;51.572;7.372;2023-07-31T06:40:29;15.15;;;4.28;;
31424;SDS011;18054;51.572;7.372;2023-07-31T06:42:57;20.00;;;5.40;;
31424;SDS011;18054;51.572;7.372;2023-07-31T06:45:26;10.00;;;4.15;;
31424;SDS011;18054;51.572;7.372;2023-07-31T06:47:54;12.35;;;4.80;;
31424;SDS011;18054;51.572;7.372;2023-07-31T06:50:22;9.68;;;3.85;;
31424;SDS011;18054;51.572;7.372;2023-07-31T06:52:50;9.60;;;4.18;;
31424;SDS011;18054;51.572;7.372;2023-07-31T06:57:46;12.82;;;4.68;;
31424;SDS011;18054;51.572;7.372;2023-07-31T07:00:13;10.27;;;5.03;;
31424;SDS011;18054;51.572;7.372;2023-07-31T07:05:10;8.52;;;4.30;;
31424;SDS011;18054;51.572;7.372;2023-07-31T07:07:38;13.30;;;4.72;;
31424;SDS011;18054;51.572;7.372;2023-07-31T07:10:06;10.82;;;3.75;;
31424;SDS011;18054;51.572;7.372;2023-07-31T07:12:34;7.55;;;3.67;;
31424;SDS011;18054;51.572;7.372;2023-07-31T07:15:02;9.75;;;3.92;;
31424;SDS011;18054;51.572;7.372;2023-07-31T07:17:30;8.73;;;4.50;;
31424;SDS011;18054;51.572;7.372;2023-07-31T07:19:58;9.80;;;3.53;;
31424;SDS011;18054;51.572;7.372;2023-07-31T07:22:28;10.07;;;3.90;;
31424;SDS011;18054;51.572;7.372;2023-07-31T07:24:56;12.70;;;3.83;;
31424;SDS011;18054;51.572;7.372;2023-07-31T07:27:24;9.85;;;3.00;;
31424;SDS011;18054;51.572;7.372;2023-07-31T07:29:52;14.73;;;3.33;;
31424;SDS011;18054;51.572;7.372;2023-07-31T07:37:15;11.38;;;5.00;;
31424;SDS011;18054;51.572;7.372;2023-07-31T07:39:44;11.38;;;3.60;;
31424;SDS011;18054;51.572;7.372;2023-07-31T07:42:12;11.00;;;4.20;;
31424;SDS011;18054;51.572;7.372;2023-07-31T07:44:40;10.10;;;3.30;;
31424;SDS011;18054;51.572;7.372;2023-07-31T07:47:08;11.07;;;3.83;;
31424;SDS011;18054;51.572;7.372;2023-07-31T07:49:35;8.43;;;3.65;;
31424;SDS011;18054;51.572;7.372;2023-07-31T07:54:31;9.52;;;3.45;;
31424;SDS011;18054;51.572;7.372;2023-07-31T08:01:55;9.23;;;3.28;;
31424;SDS011;18054;51.572;7.372;2023-07-31T08:04:23;11.80;;;3.80;;
31424;SDS011;18054;51.572;7.372;2023-07-31T08:09:19;7.63;;;3.35;;
31424;SDS011;18054;51.572;7.372;2023-07-31T08:14:14;11.55;;;3.95;;
31424;SDS011;18054;51.572;7.372;2023-07-31T08:24:06;7.18;;;2.90;;
31424;SDS011;18054;51.572;7.372;2023-07-31T08:26:34;5.50;;;2.40;;
31424;SDS011;18054;51.572;7.372;2023-07-31T08:29:03;10.65;;;2.80;;
31424;SDS011;18054;51.572;7.372;2023-07-31T08:31:30;6.35;;;2.63;;
31424;SDS011;18054;51.572;7.372;2023-07-31T08:33:58;6.95;;;3.08;;
31424;SDS011;18054;51.572;7.372;2023-07-31T08:38:56;8.25;;;2.70;;
31424;SDS011;18054;51.572;7.372;2023-07-31T08:41:25;8.88;;;2.42;;
31424;SDS011;18054;51.572;7.372;2023-07-31T08:43:53;6.13;;;2.50;;
31424;SDS011;18054;51.572;7.372;2023-07-31T08:46:22;5.57;;;2.53;;
31424;SDS011;18054;51.572;7.372;2023-07-31T08:48:50;5.90;;;2.95;;
31424;SDS011;18054;51.572;7.372;2023-07-31T08:51:20;7.20;;;1.92;;
31424;SDS011;18054;51.572;7.372;2023-07-31T08:53:48;5.55;;;2.33;;
31424;SDS011;18054;51.572;7.372;2023-07-31T08:56:16;4.07;;;2.13;;
31424;SDS011;18054;51.572;7.372;2023-07-31T09:03:40;5.10;;;2.20;;
31424;SDS011;18054;51.572;7.372;2023-07-31T09:06:09;6.38;;;1.70;;
31424;SDS011;18054;51.572;7.372;2023-07-31T09:11:05;5.43;;;2.30;;
31424;SDS011;18054;51.572;7.372;2023-07-31T09:16:00;3.70;;;1.90;;
31424;SDS011;18054;51.572;7.372;2023-07-31T09:18:28;5.00;;;2.13;;
31424;SDS011;18054;51.572;7.372;2023-07-31T09:21:04;6.22;;;2.35;;
31424;SDS011;18054;51.572;7.372;2023-07-31T09:23:41;4.57;;;2.08;;
31424;SDS011;18054;51.572;7.372;2023-07-31T09:28:37;4.18;;;2.08;;
31424;SDS011;18054;51.572;7.372;2023-07-31T09:31:05;6.70;;;2.40;;
31424;SDS011;18054;51.572;7.372;2023-07-31T09:36:01;5.15;;;1.85;;
31424;SDS011;18054;51.572;7.372;2023-07-31T09:45:55;4.22;;;1.83;;
31424;SDS011;18054;51.572;7.372;2023-07-31T09:48:23;6.95;;;2.10;;
31424;SDS011;18054;51.572;7.372;2023-07-31T09:50:53;3.88;;;1.65;;
31424;SDS011;18054;51.572;7.372;2023-07-31T09:53:22;4.28;;;1.85;;
31424;SDS011;18054;51.572;7.372;2023-07-31T09:55:55;5.90;;;2.03;;
31424;SDS011;18054;51.572;7.372;2023-07-31T09:58:24;4.45;;;1.95;;
31424;SDS011;18054;51.572;7.372;2023-07-31T10:00:54;4.75;;;1.52;;
31424;SDS011;18054;51.572;7.372;2023-07-31T10:03:22;4.35;;;1.63;;
31424;SDS011;18054;51.572;7.372;2023-07-31T10:05:51;3.47;;;1.45;;
31424;SDS011;18054;51.572;7.372;2023-07-31T10:08:21;7.25;;;1.98;;
31424;SDS011;18054;51.572;7.372;2023-07-31T10:10:51;4.03;;;1.67;;
31424;SDS011;18054;51.572;7.372;2023-07-31T10:13:19;6.00;;;1.88;;
31424;SDS011;18054;51.572;7.372;2023-07-31T10:15:48;3.42;;;1.50;;
31424;SDS011;18054;51.572;7.372;2023-07-31T10:20:46;4.03;;;1.48;;
31424;SDS011;18054;51.572;7.372;2023-07-31T10:23:14;3.90;;;1.73;;
31424;SDS011;18054;51.572;7.372;2023-07-31T10:25:43;3.40;;;1.70;;
31424;SDS011;18054;51.572;7.372;2023-07-31T10:28:12;5.13;;;1.70;;
31424;SDS011;18054;51.572;7.372;2023-07-31T10:30:39;2.63;;;1.40;;
31424;SDS011;18054;51.572;7.372;2023-07-31T10:33:08;3.88;;;1.70;;
31424;SDS011;18054;51.572;7.372;2023-07-31T10:35:36;4.25;;;1.70;;
31424;SDS011;18054;51.572;7.372;2023-07-31T10:38:10;3.30;;;1.60;;
31424;SDS011;18054;51.572;7.372;2023-07-31T10:40:39;2.25;;;1.23;;
31424;SDS011;18054;51.572;7.372;2023-07-31T10:43:07;5.25;;;1.73;;
31424;SDS011;18054;51.572;7.372;2023-07-31T10:45:38;3.50;;;1.52;;
31424;SDS011;18054;51.572;7.372;2023-07-31T10:48:06;2.65;;;1.50;;
31424;SDS011;18054;51.572;7.372;2023-07-31T10:50:36;4.38;;;1.40;;
31424;SDS011;18054;51.572;7.372;2023-07-31T10:53:05;3.25;;;1.40;;
31424;SDS011;18054;51.572;7.372;2023-07-31T10:55:38;3.08;;;1.33;;
31424;SDS011;18054;51.572;7.372;2023-07-31T10:58:07;2.85;;;1.17;;
31424;SDS011;18054;51.572;7.372;2023-07-31T11:00:36;2.35;;;1.38;;
31424;SDS011;18054;51.572;7.372;2023-07-31T11:03:04;3.90;;;1.75;;
31424;SDS011;18054;51.572;7.372;2023-07-31T11:05:43;3.13;;;1.33;;
31424;SDS011;18054;51.572;7.372;2023-07-31T11:08:15;3.28;;;1.80;;
31424;SDS011;18054;51.572;7.372;2023-07-31T11:10:44;8.45;;;1.92;;
31424;SDS011;18054;51.572;7.372;2023-07-31T11:13:12;4.25;;;1.92;;
31424;SDS011;18054;51.572;7.372;2023-07-31T11:15:40;3.33;;;1.83;;
31424;SDS011;18054;51.572;7.372;2023-07-31T11:18:08;5.88;;;1.80;;
31424;SDS011;18054;51.572;7.372;2023-07-31T11:20:38;4.28;;;2.28;;
31424;SDS011;18054;51.572;7.372;2023-07-31T11:23:07;5.00;;;2.00;;
31424;SDS011;18054;51.572;7.372;2023-07-31T11:25:35;4.80;;;2.08;;
31424;SDS011;18054;51.572;7.372;2023-07-31T11:28:04;7.80;;;2.53;;
31424;SDS011;18054;51.572;7.372;2023-07-31T11:30:33;4.38;;;1.98;;
31424;SDS011;18054;51.572;7.372;2023-07-31T11:33:01;7.05;;;3.13;;
31424;SDS011;18054;51.572;7.372;2023-07-31T11:35:31;9.00;;;2.63;;
31424;SDS011;18054;51.572;7.372;2023-07-31T11:37:59;9.77;;;2.25;;
31424;SDS011;18054;51.572;7.372;2023-07-31T11:40:27;7.18;;;2.67;;
31424;SDS011;18054;51.572;7.372;2023-07-31T11:42:58;5.22;;;2.38;;
31424;SDS011;18054;51.572;7.372;2023-07-31T11:45:32;5.35;;;2.72;;
31424;SDS011;18054;51.572;7.372;2023-07-31T11:48:01;13.45;;;2.38;;
31424;SDS011;18054;51.572;7.372;2023-07-31T11:50:30;5.80;;;2.67;;
31424;SDS011;18054;51.572;7.372;2023-07-31T11:53:02;8.43;;;2.80;;
31424;SDS011;18054;51.572;7.372;2023-07-31T11:55:33;5.22;;;2.53;;
31424;SDS011;18054;51.572;7.372;2023-07-31T11:58:02;5.72;;;2.40;;
31424;SDS011;18054;51.572;7.372;2023-07-31T12:00:30;6.68;;;2.33;;
31424;SDS011;18054;51.572;7.372;2023-07-31T12:05:28;11.85;;;3.50;;
31424;SDS011;18054;51.572;7.372;2023-07-31T12:07:56;7.57;;;2.45;;
31424;SDS011;18054;51.572;7.372;2023-07-31T12:10:28;6.53;;;2.47;;
31424;SDS011;18054;51.572;7.372;2023-07-31T12:13:00;4.53;;;1.95;;
31424;SDS011;18054;51.572;7.372;2023-07-31T12:15:29;3.17;;;1.65;;
31424;SDS011;18054;51.572;7.372;2023-07-31T12:17:58;8.18;;;1.90;;
31424;SDS011;18054;51.572;7.372;2023-07-31T12:20:28;6.88;;;2.25;;
31424;SDS011;18054;51.572;7.372;2023-07-31T12:22:57;6.07;;;2.33;;
31424;SDS011;18054;51.572;7.372;2023-07-31T12:25:28;5.32;;;1.67;;
31424;SDS011;18054;51.572;7.372;2023-07-31T12:27:56;4.43;;;2.17;;
31424;SDS011;18054;51.572;7.372;2023-07-31T12:32:52;3.20;;;1.58;;
31424;SDS011;18054;51.572;7.372;2023-07-31T12:35:20;4.97;;;1.92;;
31424;SDS011;18054;51.572;7.372;2023-07-31T12:37:51;4.68;;;2.10;;
31424;SDS011;18054;51.572;7.372;2023-07-31T12:40:20;4.53;;;2.03;;
31424;SDS011;18054;51.572;7.372;2023-07-31T12:42:55;4.13;;;2.03;;
31424;SDS011;18054;51.572;7.372;2023-07-31T12:45:23;4.10;;;2.00;;
31424;SDS011;18054;51.572;7.372;2023-07-31T12:47:50;3.15;;;1.75;;
31424;SDS011;18054;51.572;7.372;2023-07-31T12:52:46;3.58;;;1.88;;
31424;SDS011;18054;51.572;7.372;2023-07-31T12:57:43;3.35;;;1.63;;
31424;SDS011;18054;51.572;7.372;2023-07-31T13:00:11;4.22;;;2.25;;
31424;SDS011;18054;51.572;7.372;2023-07-31T13:02:39;3.20;;;1.73;;
31424;SDS011;18054;51.572;7.372;2023-07-31T13:05:07;6.15;;;2.40;;
31424;SDS011;18054;51.572;7.372;2023-07-31T13:14:59;9.70;;;2.40;;
31424;SDS011;18054;51.572;7.372;2023-07-31T13:17:27;5.45;;;2.53;;
31424;SDS011;18054;51.572;7.372;2023-07-31T13:19:54;4.20;;;1.90;;
31424;SDS011;18054;51.572;7.372;2023-07-31T13:24:49;5.30;;;1.80;;
31424;SDS011;18054;51.572;7.372;2023-07-31T13:29:48;8.75;;;1.95;;
31424;SDS011;18054;51.572;7.372;2023-07-31T13:32:17;3.67;;;1.58;;
31424;SDS011;18054;51.572;7.372;2023-07-31T13:34:46;4.82;;;2.08;;
31424;SDS011;18054;51.572;7.372;2023-07-31T13:37:14;3.00;;;1.48;;
31424;SDS011;18054;51.572;7.372;2023-07-31T13:42:09;7.93;;;1.92;;
31424;SDS011;18054;51.572;7.372;2023-07-31T13:44:39;2.42;;;0.93;;
31424;SDS011;18054;51.572;7.372;2023-07-31T13:47:07;5.75;;;1.55;;
31424;SDS011;18054;51.572;7.372;2023-07-31T13:49:36;2.83;;;1.52;;
31424;SDS011;18054;51.572;7.372;2023-07-31T13:52:05;6.15;;;1.85;;
31424;SDS011;18054;51.572;7.372;2023-07-31T13:54:33;2.92;;;1.63;;
31424;SDS011;18054;51.572;7.372;2023-07-31T13:57:02;3.78;;;1.77;;
31424;SDS011;18054;51.572;7.372;2023-07-31T13:59:32;4.07;;;1.50;;
31424;SDS011;18054;51.572;7.372;2023-07-31T14:02:01;3.90;;;1.45;;
31424;SDS011;18054;51.572;7.372;2023-07-31T14:04:29;3.80;;;1.83;;
31424;SDS011;18054;51.572;7.372;2023-07-31T14:06:58;3.72;;;1.60;;
31424;SDS011;18054;51.572;7.372;2023-07-31T14:09:26;6.93;;;2.00;;
31424;SDS011;18054;51.572;7.372;2023-07-31T14:11:55;3.78;;;2.03;;
31424;SDS011;18054;51.572;7.372;2023-07-31T14:14:22;4.40;;;2.20;;
31424;SDS011;18054;51.572;7.372;2023-07-31T14:16:50;4.68;;;1.85;;
31424;SDS011;18054;51.572;7.372;2023-07-31T14:19:18;4.35;;;1.80;;
31424;SDS011;18054;51.572;7.372;2023-07-31T14:21:47;5.90;;;2.63;;
31424;SDS011;18054;51.572;7.372;2023-07-31T14:24:32;5.45;;;1.92;;
31424;SDS011;18054;51.572;7.372;2023-07-31T14:27:00;3.67;;;1.85;;
31424;SDS011;18054;51.572;7.372;2023-07-31T14:29:29;6.43;;;1.85;;
31424;SDS011;18054;51.572;7.372;2023-07-31T14:31:57;5.13;;;2.58;;
31424;SDS011;18054;51.572;7.372;2023-07-31T14:34:26;4.25;;;1.70;;
31424;SDS011;18054;51.572;7.372;2023-07-31T14:36:54;5.60;;;2.60;;
31424;SDS011;18054;51.572;7.372;2023-07-31T14:39:22;6.28;;;2.80;;
31424;SDS011;18054;51.572;7.372;2023-07-31T14:41:52;6.10;;;2.17;;
31424;SDS011;18054;51.572;7.372;2023-07-31T14:44:20;5.72;;;2.13;;
31424;SDS011;18054;51.572;7.372;2023-07-31T14:46:48;5.15;;;1.88;;
31424;SDS011;18054;51.572;7.372;2023-07-31T14:51:44;8.50;;;2.20;;
31424;SDS011;18054;51.572;7.372;2023-07-31T14:54:12;6.57;;;2.72;;
31424;SDS011;18054;51.572;7.372;2023-07-31T14:56:40;4.47;;;2.47;;
31424;SDS011;18054;51.572;7.372;2023-07-31T14:59:10;7.93;;;2.58;;
31424;SDS011;18054;51.572;7.372;2023-07-31T15:01:38;6.25;;;2.55;;
31424;SDS011;18054;51.572;7.372;2023-07-31T15:04:06;5.47;;;2.10;;
31424;SDS011;18054;51.572;7.372;2023-07-31T15:11:29;6.72;;;2.88;;
31424;SDS011;18054;51.572;7.372;2023-07-31T15:13:57;7.50;;;2.42;;
31424;SDS011;18054;51.572;7.372;2023-07-31T15:18:54;6.75;;;2.30;;
31424;SDS011;18054;51.572;7.372;2023-07-31T15:21:22;6.30;;;2.67;;
31424;SDS011;18054;51.572;7.372;2023-07-31T15:23:50;6.97;;;2.10;;
31424;SDS011;18054;51.572;7.372;2023-07-31T15:33:41;7.65;;;2.53;;
31424;SDS011;18054;51.572;7.372;2023-07-31T15:36:10;6.78;;;2.78;;
31424;SDS011;18054;51.572;7.372;2023-07-31T15:38:38;4.90;;;2.70;;
31424;SDS011;18054;51.572;7.372;2023-07-31T15:41:07;9.70;;;2.60;;
31424;SDS011;18054;51.572;7.372;2023-07-31T15:43:35;5.97;;;2.67;;
31424;SDS011;18054;51.572;7.372;2023-07-31T15:46:03;6.93;;;3.13;;
31424;SDS011;18054;51.572;7.372;2023-07-31T15:48:31;5.30;;;2.58;;
31424;SDS011;18054;51.572;7.372;2023-07-31T15:53:28;8.50;;;2.30;;
31424;SDS011;18054;51.572;7.372;2023-07-31T15:55:57;5.20;;;2.70;;
31424;SDS011;18054;51.572;7.372;2023-07-31T15:58:27;5.57;;;2.45;;
31424;SDS011;18054;51.572;7.372;2023-07-31T16:00:55;8.05;;;2.90;;
31424;SDS011;18054;51.572;7.372;2023-07-31T16:05:50;8.00;;;2.85;;
31424;SDS011;18054;51.572;7.372;2023-07-31T16:15:43;6.10;;;3.08;;
31424;SDS011;18054;51.572;7.372;2023-07-31T16:18:11;6.30;;;3.08;;
31424;SDS011;18054;51.572;7.372;2023-07-31T16:20:39;10.68;;;2.63;;
31424;SDS011;18054;51.572;7.372;2023-07-31T16:23:06;6.82;;;2.40;;
31424;SDS011;18054;51.572;7.372;2023-07-31T16:25:35;5.75;;;2.60;;
31424;SDS011;18054;51.572;7.372;2023-07-31T16:28:03;5.68;;;3.03;;
31424;SDS011;18054;51.572;7.372;2023-07-31T16:30:31;6.80;;;3.00;;
31424;SDS011;18054;51.572;7.372;2023-07-31T16:40:24;6.25;;;3.17;;
31424;SDS011;18054;51.572;7.372;2023-07-31T16:42:51;6.45;;;2.90;;
31424;SDS011;18054;51.572;7.372;2023-07-31T16:45:19;10.52;;;3.50;;
31424;SDS011;18054;51.572;7.372;2023-07-31T16:50:15;7.28;;;3.47;;
31424;SDS011;18054;51.572;7.372;2023-07-31T16:52:43;7.95;;;3.55;;
31424;SDS011;18054;51.572;7.372;2023-07-31T16:55:10;6.25;;;3.28;;
31424;SDS011;18054;51.572;7.372;2023-07-31T16:57:39;9.65;;;3.47;;
31424;SDS011;18054;51.572;7.372;2023-07-31T17:00:07;5.47;;;2.90;;
31424;SDS011;18054;51.572;7.372;2023-07-31T17:02:36;7.07;;;3.30;;
31424;SDS011;18054;51.572;7.372;2023-07-31T17:05:04;7.43;;;3.45;;
31424;SDS011;18054;51.572;7.372;2023-07-31T17:07:32;9.95;;;3.53;;
31424;SDS011;18054;51.572;7.372;2023-07-31T17:10:00;7.75;;;3.38;;
31424;SDS011;18054;51.572;7.372;2023-07-31T17:12:28;8.27;;;3.83;;
31424;SDS011;18054;51.572;7.372;2023-07-31T17:14:57;8.05;;;3.20;;
31424;SDS011;18054;51.572;7.372;2023-07-31T17:17:24;8.13;;;3.33;;
31424;SDS011;18054;51.572;7.372;2023-07-31T17:19:53;7.80;;;3.50;;
31424;SDS011;18054;51.572;7.372;2023-07-31T17:22:21;7.28;;;3.25;;
31424;SDS011;18054;51.572;7.372;2023-07-31T17:25:08;5.97;;;2.90;;